createdAt,value
2023-02-19T00:02:28.029Z,72.06
2023-02-19T00:05:56.109Z,71.94
2023-02-19T00:09:23.476Z,71.86
2023-02-19T00:12:52.315Z,71.66
2023-02-19T00:16:22.450Z,71.68
2023-02-19T00:19:49.967Z,71.72
2023-02-19T00:23:17.744Z,71.64
2023-02-19T00:26:46.890Z,71.61
2023-02-19T00:30:15.251Z,71.45
2023-02-19T00:33:42.288Z,71.74
2023-02-19T00:37:09.137Z,71.84
2023-02-19T00:40:35.793Z,71.80
2023-02-19T00:44:16.736Z,71.81
2023-02-19T00:47:44.460Z,71.83
2023-02-19T00:51:12.072Z,71.74
2023-02-19T00:54:38.970Z,71.98
2023-02-19T00:58:08.404Z,71.97
2023-02-19T01:01:35.197Z,72.32
2023-02-19T01:05:04.517Z,72.00
2023-02-19T01:08:32.896Z,72.29
2023-02-19T01:12:00.802Z,72.16
2023-02-19T01:15:27.948Z,72.08
2023-02-19T01:18:54.860Z,72.15
2023-02-19T01:22:22.169Z,72.52
2023-02-19T01:25:49.154Z,72.25
2023-02-19T01:29:15.843Z,72.24
2023-02-19T01:32:45.085Z,72.13
2023-02-19T01:36:13.786Z,72.14
2023-02-19T01:39:41.120Z,72.23
2023-02-19T01:43:16.521Z,72.23
2023-02-19T01:46:44.689Z,72.22
2023-02-19T01:50:15.065Z,72.25
2023-02-19T01:53:48.950Z,72.12
2023-02-19T01:57:18.706Z,72.43
2023-02-19T02:00:46.717Z,72.37
2023-02-19T02:04:16.509Z,72.33
2023-02-19T02:08:02.024Z,72.36
2023-02-19T02:11:30.985Z,72.59
2023-02-19T02:14:59.636Z,72.82
2023-02-19T02:18:36.885Z,72.44
2023-02-19T02:22:19.854Z,72.95
2023-02-19T02:26:19.746Z,72.72
2023-02-19T02:30:08.907Z,72.81
2023-02-19T02:33:43.979Z,72.84
2023-02-19T02:37:14.576Z,72.59
2023-02-19T02:40:44.659Z,72.62
2023-02-19T02:44:12.610Z,72.46
2023-02-19T02:47:43.378Z,72.42
2023-02-19T02:51:22.181Z,72.65
2023-02-19T02:55:04.915Z,72.62
2023-02-19T02:58:35.824Z,72.63
2023-02-19T03:02:14.805Z,72.41
2023-02-19T03:05:54.612Z,72.62
2023-02-19T03:09:30.478Z,72.77
2023-02-19T03:13:33.491Z,72.43
2023-02-19T03:17:24.032Z,72.38
2023-02-19T03:20:56.515Z,72.70
2023-02-19T03:24:44.417Z,72.63
2023-02-19T03:28:16.480Z,72.57
2023-02-19T03:31:47.759Z,72.61
2023-02-19T03:35:18.991Z,72.55
2023-02-19T03:38:50.660Z,72.00
2023-02-19T03:42:31.897Z,72.49
2023-02-19T03:46:08.523Z,72.50
2023-02-19T03:49:44.029Z,72.65
2023-02-19T03:53:19.821Z,72.05
2023-02-19T03:56:54.657Z,72.49
2023-02-19T04:00:29.925Z,72.29
2023-02-19T04:04:03.905Z,72.29
2023-02-19T04:07:34.801Z,72.38
2023-02-19T04:11:02.002Z,72.46
2023-02-19T04:14:39.714Z,72.42
2023-02-19T04:18:11.628Z,72.71
2023-02-19T04:21:41.853Z,72.85
2023-02-19T04:25:10.199Z,72.80
2023-02-19T04:28:37.793Z,72.87
2023-02-19T04:32:05.231Z,72.97
2023-02-19T04:35:32.933Z,72.77
2023-02-19T04:39:00.124Z,72.82
2023-02-19T04:42:27.516Z,72.95
2023-02-19T04:45:55.508Z,73.11
2023-02-19T04:49:22.377Z,72.67
2023-02-19T04:52:49.541Z,72.87
2023-02-19T04:56:17.886Z,72.56
2023-02-19T04:59:45.090Z,72.50
2023-02-19T05:03:11.953Z,72.76
2023-02-19T05:06:39.588Z,72.58
2023-02-19T05:10:06.289Z,72.51
2023-02-19T05:13:35.591Z,72.72
2023-02-19T05:17:02.510Z,72.71
2023-02-19T05:20:29.270Z,72.40
2023-02-19T05:23:56.048Z,72.54
2023-02-19T05:27:23.486Z,72.63
2023-02-19T05:30:52.512Z,72.86
2023-02-19T05:34:19.260Z,72.69
2023-02-19T05:37:45.723Z,72.72
2023-02-19T05:41:15.994Z,72.74
2023-02-19T05:44:42.594Z,73.07
2023-02-19T05:48:11.879Z,73.07
2023-02-19T05:51:38.677Z,73.12
2023-02-19T05:55:06.252Z,73.58
2023-02-19T05:58:33.574Z,73.32
2023-02-19T06:02:00.477Z,73.17
2023-02-19T06:05:27.713Z,73.36
2023-02-19T06:08:55.821Z,73.27
2023-02-19T06:12:22.638Z,73.16
2023-02-19T06:15:49.716Z,73.27
2023-02-19T06:19:16.672Z,73.12
2023-02-19T06:22:43.262Z,73.18
2023-02-19T06:26:15.001Z,73.16
2023-02-19T06:29:42.051Z,73.28
2023-02-19T06:33:09.077Z,73.40
2023-02-19T06:36:36.107Z,73.49
2023-02-19T06:40:04.684Z,73.63
2023-02-19T06:43:32.939Z,73.37
2023-02-19T06:46:59.721Z,73.60
2023-02-19T06:50:26.958Z,73.34
2023-02-19T06:53:53.785Z,73.74
2023-02-19T06:57:21.091Z,73.68
2023-02-19T07:00:48.770Z,73.74
2023-02-19T07:04:17.597Z,73.60
2023-02-19T07:07:47.003Z,73.51
2023-02-19T07:11:13.816Z,73.37
2023-02-19T07:14:41.213Z,73.68
2023-02-19T07:18:10.675Z,73.42
2023-02-19T07:21:39.244Z,73.54
2023-02-19T07:25:06.436Z,73.54
2023-02-19T07:28:34.259Z,73.58
2023-02-19T07:32:01.225Z,73.47
2023-02-19T07:35:28.575Z,73.60
2023-02-19T07:39:00.518Z,73.45
2023-02-19T07:42:28.012Z,73.41
2023-02-19T07:45:55.955Z,73.43
2023-02-19T07:49:24.810Z,73.26
2023-02-19T07:52:51.755Z,73.59
2023-02-19T07:56:19.917Z,73.64
2023-02-19T07:59:47.244Z,73.68
2023-02-19T08:03:16.689Z,73.88
2023-02-19T08:06:45.804Z,73.79
2023-02-19T08:10:36.042Z,73.53
2023-02-19T08:14:04.507Z,73.46
2023-02-19T08:17:33.642Z,73.51
2023-02-19T08:21:08.975Z,73.53
2023-02-19T08:24:38.464Z,73.22
2023-02-19T08:28:06.656Z,73.19
2023-02-19T08:31:35.420Z,73.33
2023-02-19T08:35:04.694Z,72.96
2023-02-19T08:38:34.974Z,73.10
2023-02-19T08:42:01.846Z,73.04
2023-02-19T08:45:29.282Z,73.21
2023-02-19T08:48:56.457Z,72.90
2023-02-19T08:52:23.606Z,73.01
2023-02-19T08:55:51.654Z,72.96
2023-02-19T08:59:20.699Z,73.10
2023-02-19T09:02:50.920Z,73.05
2023-02-19T09:06:23.786Z,73.01
2023-02-19T09:09:51.252Z,72.87
2023-02-19T09:13:17.930Z,72.79
2023-02-19T09:16:44.778Z,72.63
2023-02-19T09:20:15.479Z,72.47
2023-02-19T09:23:42.546Z,72.66
2023-02-19T09:27:10.354Z,72.58
2023-02-19T09:30:38.586Z,72.25
2023-02-19T09:34:08.787Z,72.00
2023-02-19T09:37:36.350Z,72.02
2023-02-19T09:41:16.256Z,71.98
2023-02-19T09:44:45.945Z,71.98
2023-02-19T09:48:14.980Z,71.68
2023-02-19T09:51:45.101Z,71.51
2023-02-19T09:55:20.252Z,71.46
2023-02-19T09:58:50.614Z,71.41
2023-02-19T10:02:21.203Z,71.56
2023-02-19T10:05:49.004Z,71.46
2023-02-19T10:09:26.964Z,71.37
2023-02-19T10:12:57.549Z,71.51
2023-02-19T10:16:27.554Z,71.08
2023-02-19T10:19:55.752Z,71.03
2023-02-19T10:23:22.774Z,71.21
2023-02-19T10:26:51.862Z,70.98
2023-02-19T10:30:26.250Z,71.06
2023-02-19T10:33:55.050Z,70.76
2023-02-19T10:37:21.931Z,70.27
2023-02-19T10:40:50.012Z,70.10
2023-02-19T10:44:22.092Z,69.87
2023-02-19T10:47:56.028Z,69.62
2023-02-19T10:51:37.367Z,69.53
2023-02-19T10:55:22.669Z,69.01
2023-02-19T10:58:49.461Z,68.55
2023-02-19T11:02:22.160Z,68.54
2023-02-19T11:06:01.796Z,68.71
2023-02-19T11:09:34.148Z,68.40
2023-02-19T11:13:04.713Z,68.39
2023-02-19T11:16:42.637Z,68.24
2023-02-19T11:20:16.766Z,68.17
2023-02-19T11:23:49.525Z,67.94
2023-02-19T11:27:23.075Z,67.73
2023-02-19T11:30:52.677Z,67.53
2023-02-19T11:34:35.949Z,67.28
2023-02-19T11:38:03.715Z,67.20
2023-02-19T11:41:57.534Z,67.40
2023-02-19T11:45:38.586Z,67.33
2023-02-19T11:49:19.258Z,66.91
2023-02-19T11:52:58.103Z,66.36
2023-02-19T11:56:34.793Z,66.46
2023-02-19T12:00:17.487Z,66.10
2023-02-19T12:04:05.017Z,66.22
2023-02-19T12:07:56.599Z,66.08
2023-02-19T12:11:40.137Z,65.92
2023-02-19T12:15:26.773Z,65.91
2023-02-19T12:19:16.660Z,65.59
2023-02-19T12:22:53.312Z,64.93
2023-02-19T12:26:28.670Z,64.69
2023-02-19T12:30:18.529Z,64.64
2023-02-19T12:34:02.532Z,64.32
2023-02-19T12:37:42.856Z,63.86
2023-02-19T12:41:23.335Z,63.96
2023-02-19T12:44:54.948Z,64.15
2023-02-19T12:48:34.344Z,64.03
2023-02-19T12:52:08.545Z,63.59
2023-02-19T12:55:43.335Z,63.21
2023-02-19T12:59:16.791Z,62.83
2023-02-19T13:02:48.235Z,63.15
2023-02-19T13:06:26.134Z,63.00
2023-02-19T13:10:01.059Z,62.85
2023-02-19T13:13:33.829Z,62.56
2023-02-19T13:17:09.902Z,62.28
2023-02-19T13:20:41.622Z,61.64
2023-02-19T13:24:12.991Z,61.49
2023-02-19T13:27:59.516Z,61.67
2023-02-19T13:31:47.187Z,61.47
2023-02-19T13:35:30.410Z,61.98
2023-02-19T13:39:01.288Z,61.41
2023-02-19T13:42:33.931Z,61.16
2023-02-19T13:46:04.396Z,60.80
2023-02-19T13:49:43.680Z,60.59
2023-02-19T13:53:53.103Z,60.91
2023-02-19T13:57:32.412Z,60.46
2023-02-19T14:01:01.592Z,60.37
2023-02-19T14:04:49.224Z,59.59
2023-02-19T14:08:53.074Z,59.50
2023-02-19T14:12:32.081Z,59.43
2023-02-19T14:15:59.739Z,59.49
2023-02-19T14:19:59.785Z,59.64
2023-02-19T14:23:39.165Z,59.28
2023-02-19T14:27:06.566Z,59.29
2023-02-19T14:30:45.101Z,59.11
2023-02-19T14:34:22.608Z,58.69
2023-02-19T14:37:51.377Z,58.30
2023-02-19T14:41:20.778Z,57.93
2023-02-19T14:44:53.728Z,57.96
2023-02-19T14:48:26.048Z,57.49
2023-02-19T14:51:57.013Z,57.49
2023-02-19T14:55:28.688Z,57.65
2023-02-19T15:02:27.599Z,57.07
2023-02-19T15:05:59.921Z,56.87
2023-02-19T15:09:36.552Z,56.67
2023-02-19T15:13:06.598Z,56.78
2023-02-19T15:16:35.983Z,56.97
2023-02-19T15:20:06.768Z,56.61
2023-02-19T15:23:36.188Z,56.91
2023-02-19T15:27:03.510Z,56.85
2023-02-19T15:30:31.615Z,56.77
2023-02-19T15:33:59.022Z,56.70
2023-02-19T15:37:27.327Z,56.58
2023-02-19T15:40:56.222Z,56.70
2023-02-19T15:44:33.870Z,56.50
2023-02-19T15:48:10.520Z,56.38
2023-02-19T15:51:42.972Z,56.40
2023-02-19T15:55:35.718Z,56.50
2023-02-19T15:59:08.103Z,56.63
2023-02-19T16:02:36.168Z,56.55
2023-02-19T16:06:06.860Z,56.73
2023-02-19T16:09:38.605Z,56.74
2023-02-19T16:13:09.536Z,56.76
2023-02-19T16:16:42.438Z,56.72
2023-02-19T16:20:21.700Z,56.83
2023-02-19T16:23:54.933Z,56.70
2023-02-19T16:27:32.777Z,56.58
2023-02-19T16:31:04.883Z,56.54
2023-02-19T16:34:47.191Z,56.80
2023-02-19T16:38:17.957Z,56.57
2023-02-19T16:42:19.657Z,56.63
2023-02-19T16:45:47.498Z,56.53
2023-02-19T16:49:15.059Z,56.66
2023-02-19T16:52:54.234Z,56.62
2023-02-19T16:56:23.305Z,56.81
2023-02-19T16:59:50.532Z,57.02
2023-02-19T17:03:20.618Z,57.11
2023-02-19T17:06:48.407Z,57.19
2023-02-19T17:10:18.726Z,57.35
2023-02-19T17:13:47.391Z,57.05
2023-02-19T17:17:13.750Z,57.45
2023-02-19T17:20:42.069Z,57.40
2023-02-19T17:24:09.552Z,57.28
2023-02-19T17:27:36.570Z,57.49
2023-02-19T17:31:04.029Z,57.24
2023-02-19T17:34:31.026Z,57.35
2023-02-19T17:37:58.182Z,57.56
2023-02-19T17:41:24.989Z,57.87
2023-02-19T17:44:53.890Z,57.51
2023-02-19T17:48:21.099Z,57.98
2023-02-19T17:51:48.825Z,57.90
2023-02-19T17:55:18.687Z,58.06
2023-02-19T17:58:46.541Z,58.05
2023-02-19T18:02:13.327Z,58.10
2023-02-19T18:05:41.473Z,58.04
2023-02-19T18:09:08.764Z,58.04
2023-02-19T18:12:35.729Z,58.29
2023-02-19T18:16:03.046Z,58.24
2023-02-19T18:19:32.919Z,58.41
2023-02-19T18:23:00.231Z,58.40
2023-02-19T18:26:28.453Z,58.62
2023-02-19T18:29:59.490Z,58.50
2023-02-19T18:33:29.810Z,58.32
2023-02-19T18:36:57.655Z,58.59
2023-02-19T18:40:26.820Z,58.82
2023-02-19T18:43:54.205Z,58.84
2023-02-19T18:47:25.432Z,58.97
2023-02-19T18:50:55.928Z,58.89
2023-02-19T18:54:30.054Z,58.98
2023-02-19T18:57:59.885Z,59.28
2023-02-19T19:01:27.270Z,59.20
2023-02-19T19:04:58.829Z,59.49
2023-02-19T19:08:26.025Z,59.41
2023-02-19T19:11:55.812Z,59.66
2023-02-19T19:15:24.955Z,59.54
2023-02-19T19:18:52.737Z,59.56
2023-02-19T19:22:23.077Z,59.60
2023-02-19T19:25:50.676Z,59.75
2023-02-19T19:29:19.363Z,59.82
2023-02-19T19:32:53.731Z,59.81
2023-02-19T19:36:24.420Z,60.11
2023-02-19T19:39:52.264Z,60.21
2023-02-19T19:43:21.365Z,60.17
2023-02-19T19:46:48.995Z,60.19
2023-02-19T19:50:18.384Z,60.29
2023-02-19T19:53:53.283Z,60.43
2023-02-19T19:57:22.612Z,60.29
2023-02-19T20:00:49.630Z,60.39
2023-02-19T20:04:17.730Z,60.31
2023-02-19T20:07:44.893Z,60.51
2023-02-19T20:11:12.092Z,60.57
2023-02-19T20:14:44.738Z,60.58
2023-02-19T20:18:13.410Z,60.68
2023-02-19T20:21:40.332Z,60.64
2023-02-19T20:25:09.466Z,60.81
2023-02-19T20:28:47.069Z,60.95
2023-02-19T20:32:19.204Z,60.89
2023-02-19T20:35:49.693Z,61.06
2023-02-19T20:39:18.801Z,61.04
2023-02-19T20:42:52.906Z,60.99
2023-02-19T20:46:20.294Z,61.23
2023-02-19T20:49:53.744Z,61.27
2023-02-19T20:53:21.030Z,61.34
2023-02-19T20:56:53.566Z,61.40
2023-02-19T21:00:23.545Z,61.46
2023-02-19T21:03:52.394Z,61.45
2023-02-19T21:07:29.984Z,61.58
2023-02-19T21:11:00.894Z,61.66
2023-02-19T21:14:28.155Z,61.75
2023-02-19T21:17:55.816Z,61.82
2023-02-19T21:21:26.659Z,61.82
2023-02-19T21:24:54.649Z,61.85
2023-02-19T21:28:24.194Z,61.79
2023-02-19T21:31:58.126Z,61.85
2023-02-19T21:35:26.289Z,61.94
2023-02-19T21:38:53.803Z,61.99
2023-02-19T21:42:22.250Z,62.10
2023-02-19T21:45:49.265Z,62.03
2023-02-19T21:49:17.360Z,62.01
2023-02-19T21:52:46.819Z,62.04
2023-02-19T21:56:16.267Z,62.07
2023-02-19T21:59:45.184Z,62.10
2023-02-19T22:03:18.081Z,62.09
2023-02-19T22:06:47.893Z,62.04
2023-02-19T22:10:19.244Z,62.30
2023-02-19T22:13:46.892Z,62.20
2023-02-19T22:17:15.708Z,62.29
2023-02-19T22:20:43.141Z,62.32
2023-02-19T22:24:19.806Z,62.49
2023-02-19T22:27:49.587Z,62.40
2023-02-19T22:31:17.874Z,62.46
2023-02-19T22:34:44.782Z,62.50
2023-02-19T22:38:12.322Z,62.40
2023-02-19T22:41:45.482Z,62.55
2023-02-19T22:45:14.936Z,62.47
2023-02-19T22:48:42.867Z,62.50
2023-02-19T22:52:17.177Z,62.58
2023-02-19T22:55:45.458Z,62.69
2023-02-19T22:59:13.959Z,62.71
2023-02-19T23:02:42.855Z,62.59
2023-02-19T23:06:12.407Z,62.63
2023-02-19T23:09:40.664Z,62.72
2023-02-19T23:13:12.376Z,62.86
2023-02-19T23:16:39.626Z,62.80
2023-02-19T23:20:08.368Z,62.84
2023-02-19T23:23:36.944Z,62.86
2023-02-19T23:27:03.950Z,63.00
2023-02-19T23:30:30.902Z,63.14
2023-02-19T23:33:57.854Z,63.04
2023-02-19T23:37:25.071Z,63.14
2023-02-19T23:40:52.645Z,63.22
2023-02-19T23:44:20.891Z,63.11
2023-02-19T23:47:48.432Z,63.12
2023-02-19T23:51:15.745Z,63.25
2023-02-19T23:54:43.574Z,63.26
2023-02-19T23:58:10.496Z,63.19
